createdAt,value
2023-07-07T00:01:18.842Z,5.47
2023-07-07T00:06:24.008Z,6.47
2023-07-07T00:11:27.246Z,5.53
2023-07-07T00:16:30.234Z,5.90
2023-07-07T00:21:33.218Z,5.80
2023-07-07T00:26:36.471Z,6.63
2023-07-07T00:31:39.455Z,7.97
2023-07-07T00:36:42.749Z,8.27
2023-07-07T00:41:45.654Z,9.33
2023-07-07T00:46:48.617Z,9.27
2023-07-07T00:52:00.523Z,9.93
2023-07-07T00:57:05.894Z,8.87
2023-07-07T01:02:26.289Z,9.70
2023-07-07T01:07:37.771Z,9.03
2023-07-07T01:12:41.663Z,8.13
2023-07-07T01:18:12.006Z,9.30
2023-07-07T01:23:42.141Z,8.70
2023-07-07T01:29:04.773Z,8.13
2023-07-07T01:34:09.120Z,9.23
2023-07-07T01:39:13.174Z,10.37
2023-07-07T01:44:57.287Z,8.90
2023-07-07T01:50:13.310Z,7.80
2023-07-07T01:55:32.486Z,8.20
2023-07-07T02:00:37.410Z,7.87
2023-07-07T02:05:40.264Z,8.27
2023-07-07T02:10:43.154Z,10.13
2023-07-07T02:15:45.924Z,8.83
2023-07-07T02:20:48.635Z,9.00
2023-07-07T02:25:51.421Z,7.90
2023-07-07T02:30:56.572Z,7.33
2023-07-07T02:36:01.929Z,7.30
2023-07-07T02:41:05.212Z,7.53
2023-07-07T02:46:08.091Z,7.87
2023-07-07T02:51:10.883Z,7.13
2023-07-07T02:56:13.657Z,6.73
2023-07-07T03:01:21.491Z,6.37
2023-07-07T03:06:25.751Z,7.73
2023-07-07T03:11:28.575Z,9.80
2023-07-07T03:16:32.451Z,10.30
2023-07-07T03:21:35.387Z,10.77
2023-07-07T03:26:38.409Z,10.60
2023-07-07T03:31:41.268Z,10.73
2023-07-07T03:36:44.036Z,11.90
2023-07-07T03:41:46.776Z,30.60
2023-07-07T03:46:49.595Z,37.73
2023-07-07T03:51:52.365Z,20.20
2023-07-07T03:56:55.090Z,16.27
2023-07-07T04:01:57.814Z,13.63
2023-07-07T04:07:00.673Z,13.20
2023-07-07T04:12:04.152Z,13.53
2023-07-07T04:17:07.154Z,13.30
2023-07-07T04:22:09.882Z,12.43
2023-07-07T04:27:12.738Z,12.50
2023-07-07T04:32:16.502Z,11.93
2023-07-07T04:37:19.418Z,13.43
2023-07-07T04:42:22.285Z,12.47
2023-07-07T04:47:25.292Z,13.03
2023-07-07T04:52:28.026Z,12.07
2023-07-07T04:57:30.932Z,12.63
2023-07-07T05:02:36.601Z,11.97
2023-07-07T05:07:40.326Z,11.33
2023-07-07T05:12:43.069Z,9.67
2023-07-07T05:17:45.819Z,11.30
2023-07-07T05:22:48.566Z,9.77
2023-07-07T05:27:51.363Z,10.33
2023-07-07T05:32:54.205Z,10.43
2023-07-07T05:37:57.044Z,10.77
2023-07-07T05:42:59.788Z,11.23
2023-07-07T05:48:02.603Z,9.67
2023-07-07T05:53:05.540Z,9.70
2023-07-07T05:58:08.364Z,7.87
2023-07-07T06:03:11.376Z,8.02
2023-07-07T06:08:14.585Z,7.53
2023-07-07T06:13:19.142Z,6.65
2023-07-07T06:18:22.850Z,7.40
2023-07-07T06:23:25.878Z,6.75
2023-07-07T06:28:28.658Z,6.57
2023-07-07T06:33:31.980Z,7.00
2023-07-07T06:38:34.783Z,8.88
2023-07-07T06:43:37.536Z,9.35
2023-07-07T06:48:40.305Z,9.88
2023-07-07T06:53:43.089Z,8.10
2023-07-07T06:58:46.085Z,7.75
2023-07-07T07:03:49.098Z,6.45
2023-07-07T07:08:51.888Z,6.53
2023-07-07T07:13:54.721Z,6.38
2023-07-07T07:18:57.590Z,5.30
2023-07-07T07:24:00.925Z,4.97
2023-07-07T07:29:03.767Z,5.35
2023-07-07T07:34:27.633Z,4.40
2023-07-07T07:39:30.964Z,4.60
2023-07-07T07:44:33.882Z,4.50
2023-07-07T07:49:37.431Z,4.38
2023-07-07T07:54:40.185Z,3.83
2023-07-07T07:59:43.091Z,3.65
2023-07-07T08:04:46.076Z,3.40
2023-07-07T08:09:48.965Z,3.75
2023-07-07T08:14:52.176Z,3.20
2023-07-07T08:19:55.750Z,2.30
2023-07-07T08:24:59.757Z,2.65
2023-07-07T08:30:02.565Z,2.53
2023-07-07T08:35:05.885Z,1.88
2023-07-07T08:40:16.857Z,2.45
2023-07-07T08:45:22.200Z,2.55
2023-07-07T08:50:47.477Z,2.50
2023-07-07T08:55:56.218Z,2.40
2023-07-07T09:01:17.624Z,2.60
2023-07-07T09:06:48.464Z,2.60
2023-07-07T09:12:06.604Z,2.80
2023-07-07T09:17:20.036Z,2.50
2023-07-07T09:22:42.852Z,2.20
2023-07-07T09:28:04.689Z,2.40
2023-07-07T09:33:16.709Z,2.13
2023-07-07T09:38:32.380Z,2.50
2023-07-07T09:43:54.612Z,2.83
2023-07-07T09:48:59.923Z,2.30
2023-07-07T09:54:02.792Z,2.42
2023-07-07T09:59:15.774Z,2.40
2023-07-07T10:04:21.005Z,2.00
2023-07-07T10:09:24.034Z,1.95
2023-07-07T10:14:29.478Z,2.30
2023-07-07T10:19:40.339Z,2.22
2023-07-07T10:24:46.288Z,2.63
2023-07-07T10:29:50.196Z,2.35
2023-07-07T10:34:59.366Z,2.35
2023-07-07T10:40:03.695Z,1.92
2023-07-07T10:45:08.217Z,2.13
2023-07-07T10:50:16.011Z,2.10
2023-07-07T10:55:54.756Z,2.45
2023-07-07T11:01:09.487Z,2.53
2023-07-07T11:06:32.048Z,2.42
2023-07-07T11:11:47.830Z,2.97
2023-07-07T11:17:09.425Z,2.20
2023-07-07T11:22:22.523Z,2.25
2023-07-07T11:27:39.083Z,1.90
2023-07-07T11:33:00.216Z,2.20
2023-07-07T11:38:29.974Z,2.50
2023-07-07T11:43:36.390Z,2.00
2023-07-07T11:49:07.735Z,2.10
2023-07-07T11:54:33.021Z,2.03
2023-07-07T11:59:54.591Z,1.90
2023-07-07T12:04:59.064Z,1.85
2023-07-07T12:10:13.497Z,2.20
2023-07-07T12:15:31.132Z,2.30
2023-07-07T12:20:55.401Z,2.35
2023-07-07T12:26:14.886Z,2.10
2023-07-07T12:31:18.612Z,2.17
2023-07-07T12:36:31.899Z,2.03
2023-07-07T12:41:37.849Z,2.42
2023-07-07T12:46:40.952Z,1.73
2023-07-07T12:51:43.907Z,2.05
2023-07-07T12:57:12.775Z,2.05
2023-07-07T13:02:25.268Z,1.88
2023-07-07T13:07:33.233Z,1.83
2023-07-07T13:12:40.450Z,1.83
2023-07-07T13:17:43.504Z,2.00
2023-07-07T13:22:52.942Z,1.90
2023-07-07T13:27:56.490Z,2.13
2023-07-07T13:33:01.920Z,1.70
2023-07-07T13:38:17.151Z,2.00
2023-07-07T13:43:29.970Z,2.15
2023-07-07T13:48:34.060Z,2.13
2023-07-07T13:53:37.359Z,1.80
2023-07-07T13:58:48.324Z,2.08
2023-07-07T14:03:52.152Z,1.90
2023-07-07T14:08:55.040Z,1.73
2023-07-07T14:14:00.854Z,1.85
2023-07-07T14:19:21.924Z,2.03
2023-07-07T14:24:29.755Z,1.95
2023-07-07T14:29:41.504Z,1.90
2023-07-07T14:34:53.176Z,2.25
2023-07-07T14:40:00.007Z,2.33
2023-07-07T14:45:02.934Z,2.30
2023-07-07T14:50:08.117Z,1.95
2023-07-07T14:55:16.322Z,2.78
2023-07-07T15:00:38.830Z,2.15
2023-07-07T15:05:43.824Z,2.25
2023-07-07T15:10:46.582Z,2.35
2023-07-07T15:15:51.009Z,1.73
2023-07-07T15:20:53.834Z,2.25
2023-07-07T15:25:56.837Z,2.10
2023-07-07T15:30:59.755Z,2.13
2023-07-07T15:36:02.541Z,1.70
2023-07-07T15:41:10.834Z,1.60
2023-07-07T15:46:31.244Z,2.45
2023-07-07T15:51:36.386Z,1.80
2023-07-07T15:56:41.646Z,2.00
2023-07-07T16:01:45.280Z,1.90
2023-07-07T16:06:49.434Z,1.80
2023-07-07T16:11:52.370Z,2.22
2023-07-07T16:16:55.263Z,2.10
2023-07-07T16:21:58.094Z,1.50
2023-07-07T16:27:00.860Z,1.85
2023-07-07T16:32:03.768Z,1.85
2023-07-07T16:37:13.745Z,1.70
2023-07-07T16:42:16.752Z,2.05
2023-07-07T16:47:19.601Z,2.00
2023-07-07T16:52:22.383Z,2.03
2023-07-07T16:57:25.157Z,2.20
2023-07-07T17:02:28.047Z,1.90
2023-07-07T17:07:30.883Z,2.13
2023-07-07T17:12:33.729Z,2.00
2023-07-07T17:17:36.553Z,1.77
2023-07-07T17:22:39.365Z,2.03
2023-07-07T17:27:42.815Z,2.20
2023-07-07T17:32:46.211Z,2.30
2023-07-07T17:37:49.560Z,2.08
2023-07-07T17:42:52.575Z,1.70
2023-07-07T17:47:55.583Z,1.90
2023-07-07T17:52:58.427Z,2.33
2023-07-07T17:58:01.581Z,2.08
2023-07-07T18:03:04.937Z,2.78
2023-07-07T18:08:11.662Z,2.40
2023-07-07T18:13:14.478Z,3.00
2023-07-07T18:18:45.282Z,3.30
2023-07-07T18:23:40.032Z,3.22
2023-07-07T18:28:44.661Z,2.60
2023-07-07T18:33:47.467Z,3.00
2023-07-07T18:38:50.305Z,2.78
2023-07-07T18:43:54.421Z,2.83
2023-07-07T18:48:57.205Z,2.90
2023-07-07T18:54:00.105Z,2.97
2023-07-07T18:59:08.295Z,2.75
2023-07-07T19:04:11.051Z,2.95
2023-07-07T19:09:20.606Z,2.78
2023-07-07T19:14:23.734Z,2.83
2023-07-07T19:19:28.386Z,3.05
2023-07-07T19:24:31.284Z,3.33
2023-07-07T19:29:35.256Z,4.30
2023-07-07T19:34:38.136Z,4.15
2023-07-07T19:39:43.118Z,4.88
2023-07-07T19:44:52.901Z,3.78
2023-07-07T19:49:55.900Z,3.97
2023-07-07T19:54:58.689Z,4.38
2023-07-07T20:00:01.457Z,4.05
2023-07-07T20:05:04.596Z,3.45
2023-07-07T20:10:21.679Z,3.97
2023-07-07T20:15:24.501Z,3.80
2023-07-07T20:20:27.338Z,3.92
2023-07-07T20:25:31.345Z,4.18
2023-07-07T20:30:34.199Z,4.32
2023-07-07T20:35:36.975Z,4.10
2023-07-07T20:40:44.691Z,3.95
2023-07-07T20:45:47.646Z,3.55
2023-07-07T20:50:55.239Z,3.42
2023-07-07T20:55:58.710Z,3.33
2023-07-07T21:01:02.557Z,3.45
2023-07-07T21:06:05.837Z,3.67
2023-07-07T21:11:11.390Z,6.13
2023-07-07T21:16:17.000Z,6.88
2023-07-07T21:21:22.358Z,7.90
2023-07-07T21:26:27.860Z,7.07
2023-07-07T21:31:32.831Z,7.50
2023-07-07T21:36:40.544Z,6.20
2023-07-07T21:41:45.880Z,5.90
2023-07-07T21:46:50.284Z,5.95
2023-07-07T21:51:53.065Z,5.55
2023-07-07T21:56:56.062Z,5.47
2023-07-07T22:01:59.037Z,5.95
2023-07-07T22:07:01.834Z,6.85
2023-07-07T22:12:05.935Z,6.47
2023-07-07T22:17:10.148Z,9.48
2023-07-07T22:22:12.959Z,9.45
2023-07-07T22:27:15.850Z,8.15
2023-07-07T22:32:18.677Z,7.90
2023-07-07T22:37:21.486Z,8.18
2023-07-07T22:42:24.236Z,7.83
2023-07-07T22:47:27.014Z,7.82
2023-07-07T22:52:29.788Z,6.83
2023-07-07T22:57:32.559Z,6.73
2023-07-07T23:02:35.347Z,6.20
2023-07-07T23:07:38.244Z,6.25
2023-07-07T23:12:41.019Z,6.35
2023-07-07T23:17:44.633Z,6.27
2023-07-07T23:22:47.480Z,6.45
2023-07-07T23:27:54.806Z,6.90
2023-07-07T23:32:59.953Z,6.83
2023-07-07T23:38:02.837Z,11.03
2023-07-07T23:43:05.663Z,10.17
2023-07-07T23:48:19.283Z,10.40
2023-07-07T23:53:23.367Z,11.38
2023-07-07T23:58:27.882Z,10.00
